Majesty of the Seas — C6FZ8 — position and weather

sailwx.info

Track history (hours):
 
Tides and Currents Weather Stations Pressure Air Temp Water Temp Dewpoint Dewpoint Depression Visibility Wind Speed Wind Dir Waves Ship Positions

Majesty of the Seas (Bahamas)

Last reported at 2019-Oct-21 18:34 UTC. Time now 2019-Oct-22 23:45 UTC.
Position N 26°02' W 079°29'.

Length 268 m; draft 8 m.

Type: Ship. MMSI: 311734000.

Date/timePositionNaut miles runAvg speedWind from/ knotsBaromVisibWave heightAir tempDewpointWater temp
2019-Oct-21 18:34N 26°02' W 079°29'111.3
2019-Oct-21 18:27N 26°01' W 079°30'511.4
2019-Oct-21 18:00N 25°57' W 079°34'611.6
2019-Oct-21 17:30N 25°52' W 079°37'611.7
2019-Oct-21 17:01N 25°46' W 079°38'612.2
2019-Oct-21 16:31N 25°40' W 079°38'612.2
2019-Oct-21 16:01N 25°34' W 079°38'611.9
2019-Oct-21 15:30N 25°28' W 079°37'60 9.7
2019-Oct-21 09:17N 24°33' W 080°04'11 9.9
2019-Oct-21 08:12N 24°27' W 080°14'210.1
2019-Oct-21 08:00N 24°26' W 080°16'510.4
2019-Oct-21 07:30N 24°24' W 080°21'510.4
2019-Oct-21 07:00N 24°22' W 080°27'510.4
2019-Oct-21 06:30N 24°20' W 080°32'510.4
2019-Oct-21 06:00N 24°18' W 080°37'510.3
2019-Oct-21 05:30N 24°16' W 080°42'88 3.0
2019-Oct-19 23:47N 25°28' W 079°46'412.8
2019-Oct-19 23:29N 25°32' W 079°48'613.1
2019-Oct-19 23:01N 25°37' W 079°51'713.2
2019-Oct-19 22:30N 25°43' W 079°53'713.3
2019-Oct-19 22:00N 25°49' W 079°56'713.3
2019-Oct-19 21:31N 25°56' W 079°59'713.5
2019-Oct-19 21:00N 26°02' W 080°02'5 9.5
2019-Oct-19 20:31N 26°06' W 080°05'2 3.9
2019-Oct-19 20:01N 26°05' W 080°07'0 0.1
2019-Oct-19 19:30N 26°05' W 080°07'0 0.0
2019-Oct-19 19:00N 26°05' W 080°07'0 0.0
2019-Oct-19 18:30N 26°05' W 080°07'0 0.0
2019-Oct-19 18:00N 26°05' W 080°07'0 0.0
2019-Oct-19 17:30N 26°05' W 080°07'0 0.0
2019-Oct-19 17:00N 26°05' W 080°07'0 0.0
2019-Oct-19 16:30N 26°05' W 080°07'0 0.0
2019-Oct-19 16:00N 26°05' W 080°07'0 0.0
2019-Oct-19 15:30N 26°05' W 080°07'0 0.0
2019-Oct-19 15:00N 26°05' W 080°07'0 0.0
2019-Oct-19 14:30N 26°05' W 080°07'0 0.0
2019-Oct-19 14:00N 26°05' W 080°07'0 0.0
2019-Oct-19 13:30N 26°05' W 080°07'0 0.0
2019-Oct-19 13:00N 26°05' W 080°07'0 0.0
2019-Oct-19 12:30N 26°05' W 080°07'0 0.0
2019-Oct-19 11:57N 26°05' W 080°07'0 0.0
2019-Oct-19 11:27N 26°05' W 080°07'0 0.0
2019-Oct-19 10:57N 26°05' W 080°07'0 0.7
2019-Oct-19 10:30N 26°05' W 080°07'4 8.1
2019-Oct-19 10:00N 26°06' W 080°03'510.0
2019-Oct-19 09:30N 26°07' W 079°57'714.2
2019-Oct-19 09:00N 26°08' W 079°49'714.9
2019-Oct-19 08:30N 26°10' W 079°41'815.3
2019-Oct-19 08:00N 26°12' W 079°33'815.7
2019-Oct-19 07:30N 26°14' W 079°25'9 0.3
2019-Oct-17 18:49N 26°05' W 079°27'3 9.7
2019-Oct-17 18:30N 26°03' W 079°29'5 9.9
2019-Oct-17 18:00N 25°58' W 079°32'510.2
2019-Oct-17 17:30N 25°54' W 079°35'510.5
2019-Oct-17 17:00N 25°50' W 079°38'510.9
2019-Oct-17 16:30N 25°44' W 079°38'510.9
2019-Oct-17 16:00N 25°39' W 079°38'510.7
2019-Oct-17 15:30N 25°34' W 079°37'510.5
2019-Oct-17 15:00N 25°28' W 079°37'510.5
2019-Oct-17 14:29N 25°23' W 079°37'140 4.3
2019-Oct-16 06:00N 23°48' W 081°30'141 5.9 130 / 121014.310.8 27.025.631.0
2019-Oct-15 06:00N 25°24' W 079°36'910.4 090 / 121017.010.8 26.023.131.0
2019-Oct-15 05:07N 25°33' W 079°38'1 6.9
2019-Oct-15 05:00N 25°34' W 079°38'3 6.9
2019-Oct-15 04:30N 25°37' W 079°38'3 6.9
2019-Oct-15 04:00N 25°41' W 079°38'4 7.4
2019-Oct-15 03:30N 25°44' W 079°39'4 7.5
2019-Oct-15 03:01N 25°48' W 079°39'4 7.4
2019-Oct-15 02:31N 25°52' W 079°39'4 7.4
2019-Oct-15 02:01N 25°55' W 079°38'4 7.4
2019-Oct-15 01:31N 25°59' W 079°37'4 7.4
2019-Oct-15 01:01N 26°03' W 079°36'4 7.3
2019-Oct-15 00:31N 26°06' W 079°35'3 6.0
2019-Oct-15 00:01N 26°09' W 079°37'4 8.8
2019-Oct-14 23:31N 26°08' W 079°42'4 8.7
2019-Oct-14 23:00N 26°07' W 079°47'4 8.4
2019-Oct-14 22:30N 26°07' W 079°51'4 8.4
2019-Oct-14 22:01N 26°06' W 079°56'4 8.4
2019-Oct-14 21:30N 26°06' W 080°00'4 7.5
2019-Oct-14 21:00N 26°05' W 080°04'2 4.8
2019-Oct-14 20:30N 26°05' W 080°07'0 0.1
2019-Oct-14 20:00N 26°05' W 080°07'0 0.0
2019-Oct-14 19:27N 26°05' W 080°07'0 0.0
2019-Oct-14 19:00N 26°05' W 080°07'0 0.0
2019-Oct-14 18:30N 26°05' W 080°07'0 0.0
2019-Oct-14 18:00N 26°05' W 080°07'0 0.0
2019-Oct-14 17:30N 26°05' W 080°07'0 0.0
2019-Oct-14 17:00N 26°05' W 080°07'0 0.0
2019-Oct-14 16:30N 26°05' W 080°07'0 0.0
2019-Oct-14 16:00N 26°05' W 080°07'0 0.0
2019-Oct-14 15:30N 26°05' W 080°07'0 0.0
2019-Oct-14 15:00N 26°05' W 080°07'0 0.0
2019-Oct-14 14:30N 26°05' W 080°07'0 0.0
2019-Oct-14 14:00N 26°05' W 080°07'0 0.0
2019-Oct-14 13:30N 26°05' W 080°07'0 0.0
2019-Oct-14 13:00N 26°05' W 080°07'0 0.0
2019-Oct-14 12:30N 26°05' W 080°07'0 0.0
2019-Oct-14 12:00N 26°05' W 080°07'0 0.0
2019-Oct-14 11:30N 26°05' W 080°07'0 0.1
2019-Oct-14 11:00N 26°05' W 080°07'3 5.7
2019-Oct-14 10:31N 26°06' W 080°04'713.2
2019-Oct-14 10:01N 26°01' W 079°58'918.4
2019-Oct-14 09:30N 25°54' W 079°52'918.7
2019-Oct-14 09:01N 25°45' W 079°48'918.7
2019-Oct-14 08:31N 25°36' W 079°46'1019.0
2019-Oct-14 08:00N 25°27' W 079°46'1018.8
2019-Oct-14 07:30N 25°17' W 079°47'3120.8
2019-Oct-14 06:00N 24°48' W 080°00'40616.9 120 / 251015.110.8 26.023.131.0
2019-Oct-13 06:00N 20°54' W 086°00'111 4.6 060 / 171011.710.8 27.025.632.0
2019-Oct-12 06:00N 19°18' W 087°00'6410.6 090 / 241011.910.8 26.023.132.0
2019-Oct-12 00:00N 20°22' W 087°05'611.3
2019-Oct-11 23:30N 20°27' W 087°02'4 8.2
2019-Oct-11 23:00N 20°29' W 086°59'0 0.6
2019-Oct-11 22:29N 20°29' W 086°59'0 0.0
2019-Oct-11 21:56N 20°29' W 086°59'0 0.0
2019-Oct-11 21:29N 20°29' W 086°59'0 0.0
2019-Oct-11 20:59N 20°29' W 086°59'0 0.0
2019-Oct-11 20:29N 20°29' W 086°59'0 0.0
2019-Oct-11 19:56N 20°29' W 086°59'0 0.0
2019-Oct-11 19:26N 20°29' W 086°59'0 0.0
2019-Oct-11 18:59N 20°29' W 086°59'  
Track history (hours):
 
Tides and Currents Weather Stations Pressure Air Temp Water Temp Dewpoint Dewpoint Depression Visibility Wind Speed Wind Dir Waves Ship Positions

Majesty of the Seas (Bahamas)

Last reported at 2019-Oct-21 18:34 UTC. Time now 2019-Oct-22 23:45 UTC.
Position N 26°02' W 079°29'.

Length 268 m; draft 8 m.

Type: Ship. MMSI: 311734000.

Date/timePositionNaut miles runAvg speedWind from/ knotsBaromVisibWave heightAir tempDewpointWater temp
2019-Oct-21 18:34N 26°02' W 079°29'111.3
2019-Oct-21 18:27N 26°01' W 079°30'511.4
2019-Oct-21 18:00N 25°57' W 079°34'611.6
2019-Oct-21 17:30N 25°52' W 079°37'611.7
2019-Oct-21 17:01N 25°46' W 079°38'612.2
2019-Oct-21 16:31N 25°40' W 079°38'612.2
2019-Oct-21 16:01N 25°34' W 079°38'611.9
2019-Oct-21 15:30N 25°28' W 079°37'60 9.7
2019-Oct-21 09:17N 24°33' W 080°04'11 9.9
2019-Oct-21 08:12N 24°27' W 080°14'210.1
2019-Oct-21 08:00N 24°26' W 080°16'510.4
2019-Oct-21 07:30N 24°24' W 080°21'510.4
2019-Oct-21 07:00N 24°22' W 080°27'510.4
2019-Oct-21 06:30N 24°20' W 080°32'510.4
2019-Oct-21 06:00N 24°18' W 080°37'510.3
2019-Oct-21 05:30N 24°16' W 080°42'88 3.0
2019-Oct-19 23:47N 25°28' W 079°46'412.8
2019-Oct-19 23:29N 25°32' W 079°48'613.1
2019-Oct-19 23:01N 25°37' W 079°51'713.2
2019-Oct-19 22:30N 25°43' W 079°53'713.3
2019-Oct-19 22:00N 25°49' W 079°56'713.3
2019-Oct-19 21:31N 25°56' W 079°59'713.5
2019-Oct-19 21:00N 26°02' W 080°02'5 9.5
2019-Oct-19 20:31N 26°06' W 080°05'2 3.9
2019-Oct-19 20:01N 26°05' W 080°07'0 0.1
2019-Oct-19 19:30N 26°05' W 080°07'0 0.0
2019-Oct-19 19:00N 26°05' W 080°07'0 0.0
2019-Oct-19 18:30N 26°05' W 080°07'0 0.0
2019-Oct-19 18:00N 26°05' W 080°07'0 0.0
2019-Oct-19 17:30N 26°05' W 080°07'0 0.0
2019-Oct-19 17:00N 26°05' W 080°07'0 0.0
2019-Oct-19 16:30N 26°05' W 080°07'0 0.0
2019-Oct-19 16:00N 26°05' W 080°07'0 0.0
2019-Oct-19 15:30N 26°05' W 080°07'0 0.0
2019-Oct-19 15:00N 26°05' W 080°07'0 0.0
2019-Oct-19 14:30N 26°05' W 080°07'0 0.0
2019-Oct-19 14:00N 26°05' W 080°07'0 0.0
2019-Oct-19 13:30N 26°05' W 080°07'0 0.0
2019-Oct-19 13:00N 26°05' W 080°07'0 0.0
2019-Oct-19 12:30N 26°05' W 080°07'0 0.0
2019-Oct-19 11:57N 26°05' W 080°07'0 0.0
2019-Oct-19 11:27N 26°05' W 080°07'0 0.0
2019-Oct-19 10:57N 26°05' W 080°07'0 0.7
2019-Oct-19 10:30N 26°05' W 080°07'4 8.1
2019-Oct-19 10:00N 26°06' W 080°03'510.0
2019-Oct-19 09:30N 26°07' W 079°57'714.2
2019-Oct-19 09:00N 26°08' W 079°49'714.9
2019-Oct-19 08:30N 26°10' W 079°41'815.3
2019-Oct-19 08:00N 26°12' W 079°33'815.7
2019-Oct-19 07:30N 26°14' W 079°25'9 0.3
2019-Oct-17 18:49N 26°05' W 079°27'3 9.7
2019-Oct-17 18:30N 26°03' W 079°29'5 9.9
2019-Oct-17 18:00N 25°58' W 079°32'510.2
2019-Oct-17 17:30N 25°54' W 079°35'510.5
2019-Oct-17 17:00N 25°50' W 079°38'510.9
2019-Oct-17 16:30N 25°44' W 079°38'510.9
2019-Oct-17 16:00N 25°39' W 079°38'510.7
2019-Oct-17 15:30N 25°34' W 079°37'510.5
2019-Oct-17 15:00N 25°28' W 079°37'510.5
2019-Oct-17 14:29N 25°23' W 079°37'140 4.3
2019-Oct-16 06:00N 23°48' W 081°30'141 5.9 130 / 121014.310.8 27.025.631.0
2019-Oct-15 06:00N 25°24' W 079°36'910.4 090 / 121017.010.8 26.023.131.0
2019-Oct-15 05:07N 25°33' W 079°38'1 6.9
2019-Oct-15 05:00N 25°34' W 079°38'3 6.9
2019-Oct-15 04:30N 25°37' W 079°38'3 6.9
2019-Oct-15 04:00N 25°41' W 079°38'4 7.4
2019-Oct-15 03:30N 25°44' W 079°39'4 7.5
2019-Oct-15 03:01N 25°48' W 079°39'4 7.4
2019-Oct-15 02:31N 25°52' W 079°39'4 7.4
2019-Oct-15 02:01N 25°55' W 079°38'4 7.4
2019-Oct-15 01:31N 25°59' W 079°37'4 7.4
2019-Oct-15 01:01N 26°03' W 079°36'4 7.3
2019-Oct-15 00:31N 26°06' W 079°35'3 6.0
2019-Oct-15 00:01N 26°09' W 079°37'4 8.8
2019-Oct-14 23:31N 26°08' W 079°42'4 8.7
2019-Oct-14 23:00N 26°07' W 079°47'4 8.4
2019-Oct-14 22:30N 26°07' W 079°51'4 8.4
2019-Oct-14 22:01N 26°06' W 079°56'4 8.4
2019-Oct-14 21:30N 26°06' W 080°00'4 7.5
2019-Oct-14 21:00N 26°05' W 080°04'2 4.8
2019-Oct-14 20:30N 26°05' W 080°07'0 0.1
2019-Oct-14 20:00N 26°05' W 080°07'0 0.0
2019-Oct-14 19:27N 26°05' W 080°07'0 0.0
2019-Oct-14 19:00N 26°05' W 080°07'0 0.0
2019-Oct-14 18:30N 26°05' W 080°07'0 0.0
2019-Oct-14 18:00N 26°05' W 080°07'0 0.0
2019-Oct-14 17:30N 26°05' W 080°07'0 0.0
2019-Oct-14 17:00N 26°05' W 080°07'0 0.0
2019-Oct-14 16:30N 26°05' W 080°07'0 0.0
2019-Oct-14 16:00N 26°05' W 080°07'0 0.0
2019-Oct-14 15:30N 26°05' W 080°07'0 0.0
2019-Oct-14 15:00N 26°05' W 080°07'0 0.0
2019-Oct-14 14:30N 26°05' W 080°07'0 0.0
2019-Oct-14 14:00N 26°05' W 080°07'0 0.0
2019-Oct-14 13:30N 26°05' W 080°07'0 0.0
2019-Oct-14 13:00N 26°05' W 080°07'0 0.0
2019-Oct-14 12:30N 26°05' W 080°07'0 0.0
2019-Oct-14 12:00N 26°05' W 080°07'0 0.0
2019-Oct-14 11:30N 26°05' W 080°07'0 0.1
2019-Oct-14 11:00N 26°05' W 080°07'3 5.7
2019-Oct-14 10:31N 26°06' W 080°04'713.2
2019-Oct-14 10:01N 26°01' W 079°58'918.4
2019-Oct-14 09:30N 25°54' W 079°52'918.7
2019-Oct-14 09:01N 25°45' W 079°48'918.7
2019-Oct-14 08:31N 25°36' W 079°46'1019.0
2019-Oct-14 08:00N 25°27' W 079°46'1018.8
2019-Oct-14 07:30N 25°17' W 079°47'3120.8
2019-Oct-14 06:00N 24°48' W 080°00'40616.9 120 / 251015.110.8 26.023.131.0
2019-Oct-13 06:00N 20°54' W 086°00'111 4.6 060 / 171011.710.8 27.025.632.0
2019-Oct-12 06:00N 19°18' W 087°00'6410.6 090 / 241011.910.8 26.023.132.0
2019-Oct-12 00:00N 20°22' W 087°05'611.3
2019-Oct-11 23:30N 20°27' W 087°02'4 8.2
2019-Oct-11 23:00N 20°29' W 086°59'0 0.6
2019-Oct-11 22:29N 20°29' W 086°59'0 0.0
2019-Oct-11 21:56N 20°29' W 086°59'0 0.0
2019-Oct-11 21:29N 20°29' W 086°59'0 0.0
2019-Oct-11 20:59N 20°29' W 086°59'0 0.0
2019-Oct-11 20:29N 20°29' W 086°59'0 0.0
2019-Oct-11 19:56N 20°29' W 086°59'0 0.0
2019-Oct-11 19:26N 20°29' W 086°59'0 0.0
2019-Oct-11 18:59N 20°29' W 086°59'  

Dump ship's entire track history